MDT,Max TemperatureF,Mean TemperatureF,Min TemperatureF,Max Dew PointF,MeanDew PointF,Min DewpointF,Max Humidity, Mean Humidity, Min Humidity, Max Sea Level PressureIn, Mean Sea Level PressureIn, Min Sea Level PressureIn, Max VisibilityMiles, Mean VisibilityMiles, Min VisibilityMiles, Max Wind SpeedMPH, Mean Wind SpeedMPH, Max Gust SpeedMPH,PrecipitationIn, CloudCover, Events, WindDirDegrees
2011-10-1,80,69,57,38,34,25,44,29,13,30.15,30.07,29.99,10,10,10,14,6,18,0.00,1,,172
2011-10-2,79,68,57,46,39,29,52,38,24,30.12,30.07,29.99,10,10,10,25,4,30,0.00,4,,208
2011-10-3,76,66,55,52,45,40,66,47,27,30.22,30.07,29.97,10,10,5,26,6,32,0.04,5,Rain-Thunderstorm,145
2011-10-4,65,59,52,55,51,47,89,71,52,30.19,30.04,29.95,10,8,1,24,6,31,0.41,7,Rain,327
2011-10-5,67,59,51,52,48,42,77,60,42,30.11,29.92,29.77,10,8,1,17,7,23,0.57,6,Fog-Rain-Thunderstorm,174
2011-10-6,74,61,48,44,37,28,66,43,19,29.82,29.69,29.56,10,10,10,36,17,43,0.00,5,,192
2011-10-7,59,50,41,45,41,34,93,72,51,30.01,29.89,29.79,10,8,2,21,8,25,0.42,7,Rain,348
2011-10-8,59,49,38,38,32,26,92,61,30,30.05,30.00,29.93,10,10,7,16,7,20,0.00,4,Rain,352
2011-10-9,61,53,45,35,33,30,62,47,32,30.09,30.02,29.96,10,10,10,17,6,21,0.00,4,,65
2011-10-10,68,56,44,37,33,27,76,49,22,30.06,29.97,29.89,10,10,10,10,4,17,0.00,1,,76
2011-10-11,76,62,47,38,31,24,65,41,16,29.92,29.86,29.77,10,10,10,24,8,30,0.00,1,,350
2011-10-12,75,61,47,34,29,22,56,35,14,30.02,29.97,29.91,10,10,10,13,6,16,0.00,0,,346
2011-10-13,76,61,45,33,28,20,65,39,12,30.23,30.08,29.92,10,10,10,10,1,15,0.00,0,,118
2011-10-14,80,64,48,28,26,19,46,30,13,30.04,29.95,29.88,10,10,10,22,5,30,0.00,0,,315
2011-10-15,81,66,51,35,31,26,50,32,14,30.09,30.01,29.94,10,10,10,12,4,15,0.00,3,,58
2011-10-16,83,66,48,38,31,25,61,37,12,30.09,29.98,29.88,10,10,10,12,4,14,0.00,0,,82
2011-10-17,76,64,51,32,24,13,41,25,9,30.09,29.94,29.87,10,10,10,32,12,41,0.00,0,,313
2011-10-18,68,57,45,35,30,24,54,38,22,30.20,30.12,30.02,10,10,10,16,6,18,0.00,0,,31
2011-10-19,68,56,43,31,29,27,58,40,22,30.17,30.06,29.94,10,10,10,15,5,20,0.00,0,,199
2011-10-20,77,61,45,32,24,17,46,29,12,30.04,29.98,29.92,10,10,10,13,4,21,0.00,0,,35
2011-10-21,76,61,46,27,22,19,42,28,13,30.15,30.07,30.01,10,10,10,14,3,17,0.00,0,,317
2011-10-22,76,60,44,24,21,16,40,25,10,30.14,30.06,29.99,10,10,10,18,5,23,0.00,1,,317
2011-10-23,75,61,46,28,25,22,42,29,16,30.15,30.09,30.02,10,10,10,9,4,12,0.00,0,,21
2011-10-24,77,62,47,32,28,24,44,30,15,30.15,30.04,29.92,10,10,4,23,7,29,0.00,3,,215
2011-10-25,73,64,54,44,39,33,66,46,26,29.99,29.92,29.85,10,10,10,23,8,30,T,7,,313
2011-10-26,73,57,40,45,40,30,77,51,24,30.00,29.83,29.64,10,10,6,36,14,46,0.04,5,Rain-Thunderstorm,94
2011-10-27,52,45,37,34,31,23,73,61,48,30.14,30.05,29.88,10,10,8,15,7,18,T,5,Rain,82
2011-10-28,61,49,37,34,30,23,79,52,25,30.29,30.21,30.15,10,10,10,9,4,13,0.00,0,,335
2011-10-29,66,51,36,34,25,14,79,48,16,30.22,30.11,29.99,10,10,10,18,4,24,0.00,2,,359
2011-10-30,67,55,43,29,22,17,41,30,18,30.20,30.14,30.07,10,10,10,13,5,17,0.00,0,,8
2011-10-31,70,56,42,27,24,22,53,35,17,30.17,30.08,29.97,10,10,10,12,4,14,0.00,1,,54